createdAt,value
2017-04-20T00:00:13.548Z,0
2017-04-20T00:01:26.074Z,0
2017-04-20T00:02:38.571Z,0
2017-04-20T00:03:51.110Z,0
2017-04-20T00:05:03.638Z,0
2017-04-20T00:06:16.181Z,0
2017-04-20T00:07:28.652Z,0
2017-04-20T00:08:41.149Z,0
2017-04-20T00:09:53.402Z,0
2017-04-20T00:11:05.936Z,0
2017-04-20T00:12:17.864Z,0
2017-04-20T00:13:30.715Z,0
2017-04-20T00:14:43.106Z,0
2017-04-20T00:15:55.326Z,0
2017-04-20T00:17:07.865Z,0
2017-04-20T00:18:20.393Z,0
2017-04-20T00:19:32.904Z,0
2017-04-20T00:20:45.409Z,0
2017-04-20T00:21:57.633Z,0
2017-04-20T00:23:10.153Z,0
2017-04-20T00:24:22.687Z,0
2017-04-20T00:25:35.232Z,0
2017-04-20T00:26:47.132Z,0
2017-04-20T00:27:59.607Z,0
2017-04-20T00:29:12.129Z,0
2017-04-20T00:30:24.655Z,0
2017-04-20T00:31:37.174Z,0
2017-04-20T00:32:49.962Z,0
2017-04-20T00:34:02.511Z,0
2017-04-20T00:35:14.683Z,0
2017-04-20T00:36:27.181Z,0
2017-04-20T00:37:39.674Z,0
2017-04-20T00:38:52.217Z,0
2017-04-20T00:40:04.762Z,0
2017-04-20T00:41:17.287Z,0
2017-04-20T00:42:29.504Z,0
2017-04-20T00:43:41.428Z,0
2017-04-20T00:44:53.954Z,0
2017-04-20T00:46:06.499Z,0
2017-04-20T00:47:19.037Z,0
2017-04-20T00:48:31.235Z,0
2017-04-20T00:49:43.754Z,0
2017-04-20T00:50:55.671Z,0
2017-04-20T00:52:07.878Z,0
2017-04-20T00:53:20.375Z,0
2017-04-20T00:54:32.893Z,0
2017-04-20T00:55:45.416Z,0
2017-04-20T00:56:57.662Z,0
2017-04-20T00:58:10.161Z,0
2017-04-20T00:59:22.659Z,0
2017-04-20T01:00:35.178Z,0
2017-04-20T01:01:48.038Z,0
2017-04-20T01:03:00.538Z,0
2017-04-20T01:04:13.051Z,0
2017-04-20T01:05:25.262Z,0
2017-04-20T01:06:37.476Z,0
2017-04-20T01:07:49.979Z,0
2017-04-20T01:09:02.177Z,0
2017-04-20T01:10:14.696Z,0
2017-04-20T01:11:27.210Z,0
2017-04-20T01:12:39.778Z,0
2017-04-20T01:13:52.276Z,0
2017-04-20T01:15:04.793Z,0
2017-04-20T01:16:17.614Z,0
2017-04-20T01:17:30.128Z,0
2017-04-20T01:18:42.742Z,0
2017-04-20T01:19:54.981Z,0
2017-04-20T01:21:07.479Z,0
2017-04-20T01:22:19.990Z,0
2017-04-20T01:23:32.512Z,0
2017-04-20T01:24:45.017Z,0
2017-04-20T01:25:57.528Z,0
2017-04-20T01:27:09.986Z,0
2017-04-20T01:28:22.495Z,0
2017-04-20T01:29:35.002Z,0
2017-04-20T01:30:47.512Z,0
2017-04-20T01:31:59.736Z,0
2017-04-20T01:33:12.289Z,0
2017-04-20T01:34:24.832Z,0
2017-04-20T01:35:36.782Z,0
2017-04-20T01:36:49.340Z,0
2017-04-20T01:38:01.568Z,0
2017-04-20T01:39:14.107Z,0
2017-04-20T01:40:26.615Z,0
2017-04-20T01:41:38.878Z,0
2017-04-20T01:42:51.379Z,0
2017-04-20T01:44:03.903Z,0
2017-04-20T01:45:16.395Z,0
2017-04-20T01:46:28.592Z,0
2017-04-20T01:47:41.109Z,0
2017-04-20T01:48:53.333Z,0
2017-04-20T01:50:05.829Z,0
2017-04-20T01:51:18.375Z,0
2017-04-20T01:52:30.967Z,0
2017-04-20T01:53:43.593Z,0
2017-04-20T01:54:55.817Z,0
2017-04-20T01:56:08.334Z,0
2017-04-20T01:57:20.834Z,0
2017-04-20T01:58:33.071Z,0
2017-04-20T01:59:45.575Z,0
2017-04-20T02:00:58.087Z,0
2017-04-20T02:02:10.633Z,0
2017-04-20T02:03:23.150Z,0
2017-04-20T02:04:34.430Z,0
2017-04-20T02:05:46.957Z,0
2017-04-20T02:06:59.198Z,0
2017-04-20T02:08:11.742Z,0
2017-04-20T02:09:24.256Z,0
2017-04-20T02:10:36.787Z,0
2017-04-20T02:11:49.314Z,0
2017-04-20T02:13:00.631Z,0
2017-04-20T02:14:13.164Z,0
2017-04-20T02:15:25.645Z,0
2017-04-20T02:16:38.140Z,0
2017-04-20T02:17:50.636Z,0
2017-04-20T02:19:03.207Z,0
2017-04-20T02:20:15.723Z,0
2017-04-20T02:21:28.240Z,0
2017-04-20T02:22:40.447Z,0
2017-04-20T02:23:52.943Z,0
2017-04-20T02:25:05.165Z,0
2017-04-20T02:26:17.752Z,0
2017-04-20T02:27:30.302Z,0
2017-04-20T02:28:42.798Z,0
2017-04-20T02:29:55.062Z,0
2017-04-20T02:31:07.007Z,0
2017-04-20T02:32:19.789Z,0
2017-04-20T02:33:32.310Z,0
2017-04-20T02:34:44.509Z,0
2017-04-20T02:35:57.024Z,0
2017-04-20T02:37:09.523Z,0
2017-04-20T02:38:22.039Z,0
2017-04-20T02:39:34.236Z,0
2017-04-20T02:40:46.451Z,0
2017-04-20T02:41:58.956Z,0
2017-04-20T02:43:11.727Z,0
2017-04-20T02:44:24.513Z,0
2017-04-20T02:45:37.044Z,0
2017-04-20T02:46:49.590Z,0
2017-04-20T02:48:02.411Z,0
2017-04-20T02:49:14.904Z,0
2017-04-20T02:50:27.118Z,0
2017-04-20T02:51:39.621Z,0
2017-04-20T02:52:52.141Z,0
2017-04-20T02:54:04.066Z,0
2017-04-20T02:55:16.562Z,0
2017-04-20T02:56:29.086Z,0
2017-04-20T02:57:41.647Z,0
2017-04-20T02:58:54.192Z,0
2017-04-20T03:00:06.720Z,0
2017-04-20T03:01:19.238Z,0
2017-04-20T03:02:31.562Z,0
2017-04-20T03:03:44.086Z,0
2017-04-20T03:04:56.901Z,0
2017-04-20T03:06:09.115Z,0
2017-04-20T03:07:21.635Z,0
2017-04-20T03:08:34.166Z,0
2017-04-20T03:09:46.661Z,0
2017-04-20T03:10:58.861Z,0
2017-04-20T03:12:11.372Z,0
2017-04-20T03:13:23.925Z,0
2017-04-20T03:14:36.145Z,0
2017-04-20T03:15:48.367Z,0
2017-04-20T03:17:00.601Z,0
2017-04-20T03:18:12.815Z,0
2017-04-20T03:19:25.606Z,0
2017-04-20T03:20:38.128Z,0
2017-04-20T03:21:50.669Z,0
2017-04-20T03:23:03.182Z,0
2017-04-20T03:24:15.687Z,0
2017-04-20T03:25:28.223Z,0
2017-04-20T03:26:40.702Z,0
2017-04-20T03:27:53.226Z,0
2017-04-20T03:29:05.760Z,0
2017-04-20T03:30:18.311Z,0
2017-04-20T03:31:30.536Z,0
2017-04-20T03:32:43.007Z,0
2017-04-20T03:33:55.545Z,0
2017-04-20T03:35:07.768Z,0
2017-04-20T03:36:19.974Z,0
2017-04-20T03:37:33.146Z,0
2017-04-20T03:38:45.718Z,0
2017-04-20T03:39:58.010Z,0
2017-04-20T03:41:10.206Z,0
2017-04-20T03:42:22.703Z,0
2017-04-20T03:43:35.215Z,0
2017-04-20T03:44:47.419Z,0
2017-04-20T03:45:59.619Z,0
2017-04-20T03:47:11.543Z,5
2017-04-20T03:48:24.096Z,5
2017-04-20T03:49:36.617Z,5
2017-04-20T03:50:49.121Z,5
2017-04-20T03:52:01.619Z,5
2017-04-20T03:53:14.188Z,10
2017-04-20T03:54:26.404Z,10
2017-04-20T03:55:38.883Z,10
2017-04-20T03:56:51.778Z,15
2017-04-20T03:58:04.271Z,15
2017-04-20T03:59:17.048Z,15
2017-04-20T04:00:29.565Z,20
2017-04-20T04:01:42.088Z,20
2017-04-20T04:02:54.597Z,20
2017-04-20T04:04:07.079Z,25
2017-04-20T04:05:19.600Z,25
2017-04-20T04:06:32.138Z,30
2017-04-20T04:07:44.666Z,30
2017-04-20T04:08:57.205Z,35
2017-04-20T04:10:09.729Z,40
2017-04-20T04:11:22.268Z,40
2017-04-20T04:12:34.771Z,45
2017-04-20T04:13:47.438Z,50
2017-04-20T04:15:00.268Z,50
2017-04-20T04:16:12.735Z,55
2017-04-20T04:17:25.251Z,55
2017-04-20T04:18:37.781Z,60
2017-04-20T04:19:50.276Z,60
2017-04-20T04:21:02.735Z,65
2017-04-20T04:22:15.244Z,65
2017-04-20T04:23:27.761Z,70
2017-04-20T04:24:40.282Z,75
2017-04-20T04:25:52.779Z,80
2017-04-20T04:27:04.998Z,85
2017-04-20T04:28:17.518Z,85
2017-04-20T04:29:30.072Z,90
2017-04-20T04:30:42.328Z,95
2017-04-20T04:31:55.256Z,95
2017-04-20T04:33:07.732Z,100
2017-04-20T04:34:19.651Z,100
2017-04-20T04:35:32.148Z,105
2017-04-20T04:36:44.340Z,105
2017-04-20T04:37:56.832Z,115
2017-04-20T04:39:09.332Z,115
2017-04-20T04:40:21.833Z,115
2017-04-20T04:41:34.028Z,115
2017-04-20T04:42:46.800Z,120
2017-04-20T04:43:59.315Z,125
2017-04-20T04:45:11.862Z,130
2017-04-20T04:46:24.083Z,125
2017-04-20T04:47:36.306Z,125
2017-04-20T04:48:48.850Z,130
2017-04-20T04:50:01.051Z,135
2017-04-20T04:51:13.716Z,140
2017-04-20T04:52:26.237Z,145
2017-04-20T04:53:38.411Z,150
2017-04-20T04:54:50.925Z,155
2017-04-20T04:56:03.449Z,160
2017-04-20T04:57:15.971Z,165
2017-04-20T04:58:28.166Z,165
2017-04-20T04:59:40.662Z,165
2017-04-20T05:00:52.861Z,165
2017-04-20T05:02:05.099Z,165
2017-04-20T05:03:17.321Z,165
2017-04-20T05:04:29.817Z,165
2017-04-20T05:05:42.020Z,165
2017-04-20T05:06:54.531Z,160
2017-04-20T05:08:07.058Z,165
2017-04-20T05:09:19.758Z,165
2017-04-20T05:10:32.401Z,165
2017-04-20T05:11:44.625Z,170
2017-04-20T05:12:56.854Z,170
2017-04-20T05:14:09.387Z,175
2017-04-20T05:15:21.910Z,175
2017-04-20T05:16:34.160Z,175
2017-04-20T05:17:46.681Z,175
2017-04-20T05:18:59.218Z,175
2017-04-20T05:20:11.439Z,180
2017-04-20T05:21:23.345Z,185
2017-04-20T05:22:35.879Z,190
2017-04-20T05:23:48.380Z,190
2017-04-20T05:25:00.944Z,190
2017-04-20T05:26:13.479Z,190
2017-04-20T05:27:26.119Z,190
2017-04-20T05:28:38.657Z,195
2017-04-20T05:29:51.178Z,200
2017-04-20T05:31:03.410Z,200
2017-04-20T05:32:15.902Z,205
2017-04-20T05:33:27.833Z,205
2017-04-20T05:34:40.369Z,200
2017-04-20T05:35:52.593Z,205
2017-04-20T05:37:05.110Z,205
2017-04-20T05:38:17.316Z,205
2017-04-20T05:39:29.829Z,210
2017-04-20T05:40:42.328Z,210
2017-04-20T05:41:54.863Z,210
2017-04-20T05:43:07.412Z,210
2017-04-20T05:44:19.929Z,215
2017-04-20T05:45:32.461Z,215
2017-04-20T05:46:44.953Z,245
2017-04-20T05:47:57.752Z,275
2017-04-20T05:49:10.004Z,240
2017-04-20T05:50:22.533Z,240
2017-04-20T05:51:35.062Z,240
2017-04-20T05:52:47.582Z,235
2017-04-20T05:54:00.082Z,230
2017-04-20T05:55:12.599Z,240
2017-04-20T05:56:24.563Z,250
2017-04-20T05:57:37.066Z,260
2017-04-20T05:58:49.816Z,275
2017-04-20T06:00:02.312Z,370
2017-04-20T06:01:14.529Z,475
2017-04-20T06:02:27.050Z,415
2017-04-20T06:03:39.272Z,390
2017-04-20T06:04:51.788Z,465
2017-04-20T06:06:04.462Z,465
2017-04-20T06:07:16.779Z,395
2017-04-20T06:08:29.325Z,420
2017-04-20T06:09:41.818Z,550
2017-04-20T06:10:54.364Z,430
2017-04-20T06:12:06.867Z,450
2017-04-20T06:13:19.065Z,385
2017-04-20T06:14:31.289Z,480
2017-04-20T06:15:43.523Z,475
2017-04-20T06:16:56.069Z,460
2017-04-20T06:18:08.293Z,695
2017-04-20T06:19:20.521Z,825
2017-04-20T06:20:33.306Z,1085
2017-04-20T06:21:45.514Z,1410
2017-04-20T06:22:57.707Z,1395
2017-04-20T06:24:09.928Z,1425
2017-04-20T06:25:22.632Z,1325
2017-04-20T06:26:34.844Z,1345
2017-04-20T06:27:47.368Z,1360
2017-04-20T06:28:59.560Z,1345
2017-04-20T06:30:12.085Z,1300
2017-04-20T06:31:24.302Z,1190
2017-04-20T06:32:36.797Z,1045
2017-04-20T06:33:49.024Z,865
2017-04-20T06:35:01.585Z,775
2017-04-20T06:36:14.156Z,740
2017-04-20T06:37:26.659Z,715
2017-04-20T06:38:38.870Z,715
2017-04-20T06:39:51.078Z,725
2017-04-20T06:41:03.601Z,755
2017-04-20T06:42:16.433Z,755
2017-04-20T06:43:28.979Z,745
2017-04-20T06:44:41.635Z,730
2017-04-20T06:45:53.948Z,710
2017-04-20T06:47:06.476Z,700
2017-04-20T06:48:18.686Z,695
2017-04-20T06:49:31.216Z,695
2017-04-20T06:50:43.739Z,685
2017-04-20T06:51:56.261Z,680
2017-04-20T06:53:08.804Z,670
2017-04-20T06:54:21.323Z,660
2017-04-20T06:55:33.541Z,685
2017-04-20T06:56:46.066Z,885
2017-04-20T06:57:58.287Z,1070
2017-04-20T06:59:10.784Z,1430
2017-04-20T07:00:23.023Z,1625
2017-04-20T07:01:35.578Z,1715
2017-04-20T07:02:48.099Z,1820
2017-04-20T07:04:00.634Z,1960
2017-04-20T07:05:13.667Z,1915
2017-04-20T07:06:26.162Z,1850
2017-04-20T07:07:38.705Z,1785
2017-04-20T07:08:51.245Z,980
2017-04-20T07:10:03.193Z,1105
2017-04-20T07:11:15.417Z,760
2017-04-20T07:12:27.954Z,1640
2017-04-20T07:13:40.201Z,1240
2017-04-20T07:14:52.730Z,1635
2017-04-20T07:16:05.250Z,1785
2017-04-20T07:17:17.497Z,1915
2017-04-20T07:18:30.034Z,1930
2017-04-20T07:19:42.263Z,1990
2017-04-20T07:20:54.802Z,1970
2017-04-20T07:22:07.030Z,1980
2017-04-20T07:23:19.733Z,2030
2017-04-20T07:24:32.368Z,1965
2017-04-20T07:25:44.972Z,1945
2017-04-20T07:26:57.220Z,1940
2017-04-20T07:28:09.802Z,2030
2017-04-20T07:29:22.305Z,1980
2017-04-20T07:30:34.801Z,2045
2017-04-20T07:31:47.027Z,1980
2017-04-20T07:32:59.572Z,2025
2017-04-20T07:34:11.169Z,1945
2017-04-20T07:35:23.703Z,2025
2017-04-20T07:36:36.537Z,2150
2017-04-20T07:37:48.477Z,2215
2017-04-20T07:39:00.727Z,2190
2017-04-20T07:40:12.669Z,2225
2017-04-20T07:41:25.190Z,2250
2017-04-20T07:42:36.840Z,2295
2017-04-20T07:43:49.084Z,2295
2017-04-20T07:45:01.310Z,2375
2017-04-20T07:46:13.603Z,2355
2017-04-20T07:47:26.149Z,2455
2017-04-20T07:48:38.386Z,2370
2017-04-20T07:49:50.617Z,2405
2017-04-20T07:51:02.577Z,2440
2017-04-20T07:52:14.805Z,2375
2017-04-20T07:53:26.741Z,2400
2017-04-20T07:54:38.991Z,2520
2017-04-20T07:55:51.233Z,2605
2017-04-20T07:57:03.141Z,2480
2017-04-20T07:58:15.078Z,2205
2017-04-20T07:59:27.611Z,1980
2017-04-20T08:00:39.570Z,1615
2017-04-20T08:01:52.123Z,725
2017-04-20T08:03:04.058Z,490
2017-04-20T08:04:16.141Z,485
2017-04-20T08:05:28.675Z,485
2017-04-20T08:06:40.304Z,495
2017-04-20T08:07:52.829Z,490
2017-04-20T08:09:04.750Z,480
2017-04-20T08:10:16.970Z,480
2017-04-20T08:11:29.516Z,485
2017-04-20T08:12:41.759Z,510
2017-04-20T08:13:53.983Z,520
2017-04-20T08:15:06.203Z,570
2017-04-20T08:16:18.139Z,635
2017-04-20T08:17:30.660Z,605
2017-04-20T08:18:42.609Z,560
2017-04-20T08:19:54.535Z,525
2017-04-20T08:21:06.758Z,495
2017-04-20T08:22:19.031Z,485
2017-04-20T08:23:31.249Z,485
2017-04-20T08:24:43.745Z,500
2017-04-20T08:25:55.683Z,515
2017-04-20T08:27:07.616Z,540
2017-04-20T08:28:20.156Z,495
2017-04-20T08:29:32.427Z,490
2017-04-20T08:30:44.948Z,470
2017-04-20T08:31:56.586Z,465
2017-04-20T08:33:08.534Z,475
2017-04-20T08:34:20.480Z,480
2017-04-20T08:35:32.424Z,485
2017-04-20T08:36:44.958Z,475
2017-04-20T08:37:57.501Z,465
2017-04-20T08:39:09.723Z,470
2017-04-20T08:40:21.943Z,470
2017-04-20T08:41:34.490Z,475
2017-04-20T08:42:47.085Z,495
2017-04-20T08:43:59.903Z,520
2017-04-20T08:45:11.898Z,530
2017-04-20T08:46:24.420Z,515
2017-04-20T08:47:36.066Z,510
2017-04-20T08:48:48.289Z,510
2017-04-20T08:50:00.207Z,540
2017-04-20T08:51:12.449Z,555
2017-04-20T08:52:24.392Z,525
2017-04-20T08:53:36.616Z,525
2017-04-20T08:54:48.864Z,530
2017-04-20T08:56:00.761Z,535
2017-04-20T08:57:12.987Z,535
2017-04-20T08:58:25.454Z,540
2017-04-20T08:59:37.374Z,560
2017-04-20T09:00:49.895Z,600
2017-04-20T09:02:01.221Z,640
2017-04-20T09:03:13.358Z,705
2017-04-20T09:04:26.025Z,735
2017-04-20T09:05:38.571Z,740
2017-04-20T09:06:51.075Z,760
2017-04-20T09:08:03.625Z,775
2017-04-20T09:09:15.870Z,840
2017-04-20T09:10:27.769Z,885
2017-04-20T09:11:40.042Z,935
2017-04-20T09:12:52.588Z,965
2017-04-20T09:14:04.525Z,1000
2017-04-20T09:15:16.450Z,1035
2017-04-20T09:16:28.693Z,1015
2017-04-20T09:17:40.933Z,925
2017-04-20T09:18:52.851Z,880
2017-04-20T09:20:04.798Z,845
2017-04-20T09:21:17.026Z,805
2017-04-20T09:22:29.550Z,660
2017-04-20T09:23:41.220Z,620
2017-04-20T09:24:54.109Z,630
2017-04-20T09:26:05.735Z,605
2017-04-20T09:27:17.955Z,570
2017-04-20T09:28:29.256Z,580
2017-04-20T09:29:41.490Z,615
2017-04-20T09:30:54.039Z,650
2017-04-20T09:32:06.541Z,670
2017-04-20T09:33:18.477Z,745
2017-04-20T09:34:29.806Z,670
2017-04-20T09:35:41.747Z,695
2017-04-20T09:36:53.974Z,740
2017-04-20T09:38:05.600Z,730
2017-04-20T09:39:17.837Z,730
2017-04-20T09:40:30.389Z,735
2017-04-20T09:41:42.611Z,740
2017-04-20T09:42:55.106Z,725
2017-04-20T09:44:06.877Z,765
2017-04-20T09:45:19.497Z,770
2017-04-20T09:46:32.018Z,775
2017-04-20T09:47:44.239Z,760
2017-04-20T09:48:56.786Z,705
2017-04-20T09:50:09.328Z,670
2017-04-20T09:51:21.251Z,695
2017-04-20T09:52:33.773Z,740
2017-04-20T09:53:46.016Z,825
2017-04-20T09:54:58.546Z,910
2017-04-20T09:56:10.803Z,990
2017-04-20T09:57:23.056Z,1040
2017-04-20T09:58:34.970Z,1085
2017-04-20T09:59:47.179Z,1100
2017-04-20T10:00:58.834Z,1100
2017-04-20T10:02:10.479Z,1150
2017-04-20T10:03:22.982Z,1010
2017-04-20T10:04:35.505Z,955
2017-04-20T10:05:47.129Z,925
2017-04-20T10:06:58.742Z,915
2017-04-20T10:08:10.666Z,905
2017-04-20T10:09:22.319Z,890
2017-04-20T10:10:34.559Z,885
2017-04-20T10:11:46.483Z,860
2017-04-20T10:12:59.030Z,895
2017-04-20T10:14:10.976Z,940
2017-04-20T10:15:22.897Z,955
2017-04-20T10:16:34.817Z,1010
2017-04-20T10:17:46.434Z,1950
2017-04-20T10:18:58.336Z,1040
2017-04-20T10:20:10.256Z,795
2017-04-20T10:21:22.748Z,770
2017-04-20T10:22:34.370Z,785
2017-04-20T10:23:46.311Z,685
2017-04-20T10:24:58.235Z,575
2017-04-20T10:26:10.730Z,615
2017-04-20T10:27:22.831Z,2740
2017-04-20T10:28:34.748Z,3260
2017-04-20T10:29:46.687Z,3410
2017-04-20T10:30:59.217Z,3435
2017-04-20T10:32:11.119Z,2170
2017-04-20T10:33:22.740Z,725
2017-04-20T10:34:34.077Z,1805
2017-04-20T10:35:46.573Z,3250
2017-04-20T10:36:58.798Z,3140
2017-04-20T10:38:10.394Z,3130
2017-04-20T10:39:22.632Z,3045
2017-04-20T10:40:34.553Z,2885
2017-04-20T10:41:45.884Z,2885
2017-04-20T10:42:57.529Z,3010
2017-04-20T10:44:09.773Z,3080
2017-04-20T10:45:22.000Z,2960
2017-04-20T10:46:33.311Z,2925
2017-04-20T10:47:44.960Z,2835
2017-04-20T10:48:56.429Z,2515
2017-04-20T10:50:08.349Z,1250
2017-04-20T10:51:19.973Z,1165
2017-04-20T10:52:31.345Z,2090
2017-04-20T10:53:43.566Z,1810
2017-04-20T10:54:55.489Z,800
2017-04-20T10:56:06.833Z,790
2017-04-20T10:57:18.771Z,840
2017-04-20T10:58:31.297Z,875
2017-04-20T10:59:43.522Z,900
2017-04-20T11:00:55.141Z,900
2017-04-20T11:02:07.084Z,890
2017-04-20T11:03:19.604Z,2485
2017-04-20T11:04:31.219Z,2915
2017-04-20T11:05:43.164Z,2935
2017-04-20T11:06:55.396Z,3110
2017-04-20T11:08:07.035Z,3265
2017-04-20T11:09:19.378Z,3785
2017-04-20T11:10:31.032Z,3740
2017-04-20T11:11:43.330Z,3730
2017-04-20T11:12:55.297Z,3760
2017-04-20T11:14:07.238Z,5245
2017-04-20T11:15:18.569Z,6265
2017-04-20T11:16:31.088Z,6615
2017-04-20T11:17:43.028Z,5520
2017-04-20T11:18:55.905Z,1190
2017-04-20T11:20:07.244Z,1170
2017-04-20T11:21:18.876Z,4545
2017-04-20T11:22:30.818Z,2310
2017-04-20T11:23:43.014Z,1530
2017-04-20T11:24:55.232Z,4270
2017-04-20T11:26:07.202Z,3560
2017-04-20T11:27:18.840Z,1485
2017-04-20T11:28:30.470Z,1015
2017-04-20T11:29:42.686Z,900
2017-04-20T11:30:54.654Z,815
2017-04-20T11:32:05.729Z,775
2017-04-20T11:33:17.974Z,750
2017-04-20T11:34:29.610Z,730
2017-04-20T11:35:41.245Z,740
2017-04-20T11:36:53.486Z,800
2017-04-20T11:38:05.409Z,890
2017-04-20T11:39:17.054Z,4515
2017-04-20T11:40:28.986Z,4385
2017-04-20T11:41:40.325Z,4610
2017-04-20T11:42:52.891Z,4555
2017-04-20T11:44:04.821Z,4385
2017-04-20T11:45:17.041Z,4235
2017-04-20T11:46:29.559Z,3985
2017-04-20T11:47:41.782Z,4395
2017-04-20T11:48:53.728Z,4395
2017-04-20T11:50:05.389Z,4055
2017-04-20T11:51:17.621Z,4535
2017-04-20T11:52:29.281Z,4810
2017-04-20T11:53:40.913Z,1770
2017-04-20T11:54:53.151Z,1410
2017-04-20T11:56:05.077Z,2025
2017-04-20T11:57:16.726Z,1530
2017-04-20T11:58:28.672Z,1950
2017-04-20T11:59:40.918Z,3905
2017-04-20T12:00:52.864Z,1090
2017-04-20T12:02:04.509Z,885
2017-04-20T12:03:16.145Z,830
2017-04-20T12:04:27.772Z,780
2017-04-20T12:05:39.675Z,735
2017-04-20T12:06:50.710Z,690
2017-04-20T12:08:02.678Z,655
2017-04-20T12:09:14.932Z,635
2017-04-20T12:10:26.596Z,615
2017-04-20T12:11:38.541Z,605
2017-04-20T12:12:50.789Z,605
2017-04-20T12:14:02.970Z,620
2017-04-20T12:15:15.216Z,630
2017-04-20T12:16:27.184Z,640
2017-04-20T12:17:39.053Z,640
2017-04-20T12:18:50.977Z,660
2017-04-20T12:20:02.599Z,690
2017-04-20T12:21:14.837Z,725
2017-04-20T12:22:26.168Z,730
2017-04-20T12:23:38.091Z,750
2017-04-20T12:24:49.436Z,770
2017-04-20T12:26:01.353Z,800
2017-04-20T12:27:13.873Z,840
2017-04-20T12:28:26.423Z,885
2017-04-20T12:29:38.937Z,900
2017-04-20T12:30:51.187Z,910
2017-04-20T12:32:03.107Z,915
2017-04-20T12:33:14.722Z,895
2017-04-20T12:34:26.946Z,880
2017-04-20T12:35:38.771Z,875
2017-04-20T12:36:50.772Z,870
2017-04-20T12:38:02.877Z,860
2017-04-20T12:39:14.789Z,870
2017-04-20T12:40:26.731Z,875
2017-04-20T12:41:39.265Z,905
2017-04-20T12:42:51.793Z,945
2017-04-20T12:44:04.018Z,970
2017-04-20T12:45:16.280Z,985
2017-04-20T12:46:28.226Z,990
2017-04-20T12:47:40.775Z,945
2017-04-20T12:48:52.700Z,840
2017-04-20T12:50:04.622Z,770
2017-04-20T12:51:17.135Z,715
2017-04-20T12:52:29.363Z,665
2017-04-20T12:53:41.906Z,615
2017-04-20T12:54:53.848Z,565
2017-04-20T12:56:06.077Z,540
2017-04-20T12:57:18.012Z,550
2017-04-20T12:58:30.732Z,535
2017-04-20T12:59:43.281Z,530
2017-04-20T13:00:54.907Z,525
2017-04-20T13:02:07.128Z,535
2017-04-20T13:03:19.349Z,545
2017-04-20T13:04:31.598Z,555
2017-04-20T13:05:43.832Z,560
2017-04-20T13:06:56.082Z,575
2017-04-20T13:08:08.610Z,610
2017-04-20T13:09:21.132Z,650
2017-04-20T13:10:33.348Z,675
2017-04-20T13:11:45.614Z,690
2017-04-20T13:12:57.844Z,720
2017-04-20T13:14:10.082Z,760
2017-04-20T13:15:22.634Z,800
2017-04-20T13:16:34.254Z,835
2017-04-20T13:17:46.456Z,855
2017-04-20T13:18:58.991Z,850
2017-04-20T13:20:11.538Z,825
2017-04-20T13:21:24.044Z,800
2017-04-20T13:22:35.983Z,760
2017-04-20T13:23:48.507Z,715
2017-04-20T13:25:00.742Z,685
2017-04-20T13:26:12.675Z,640
2017-04-20T13:27:25.198Z,600
2017-04-20T13:28:37.138Z,560
2017-04-20T13:29:49.659Z,510
2017-04-20T13:31:01.583Z,485
2017-04-20T13:32:14.101Z,475
2017-04-20T13:33:26.021Z,475
2017-04-20T13:34:38.564Z,485
2017-04-20T13:35:50.491Z,480
2017-04-20T13:37:03.055Z,470
2017-04-20T13:38:15.600Z,455
2017-04-20T13:39:27.851Z,460
2017-04-20T13:40:40.091Z,445
2017-04-20T13:41:51.739Z,425
2017-04-20T13:43:03.667Z,415
2017-04-20T13:44:16.163Z,405
2017-04-20T13:45:28.423Z,405
2017-04-20T13:46:40.997Z,420
2017-04-20T13:47:52.922Z,430
2017-04-20T13:49:05.465Z,445
2017-04-20T13:50:18.007Z,455
2017-04-20T13:51:30.235Z,460
2017-04-20T13:52:42.764Z,480
2017-04-20T13:53:54.998Z,500
2017-04-20T13:55:07.229Z,530
2017-04-20T13:56:18.886Z,565
2017-04-20T13:57:31.120Z,615
2017-04-20T13:58:43.364Z,665
2017-04-20T13:59:55.787Z,690
2017-04-20T14:01:08.181Z,715
2017-04-20T14:02:20.098Z,740
2017-04-20T14:03:32.324Z,755
2017-04-20T14:04:44.561Z,775
2017-04-20T14:05:56.782Z,780
2017-04-20T14:07:08.707Z,770
2017-04-20T14:08:20.925Z,750
2017-04-20T14:09:33.450Z,725
2017-04-20T14:10:45.669Z,735
2017-04-20T14:11:57.591Z,755
2017-04-20T14:13:10.111Z,805
2017-04-20T14:14:22.353Z,845
2017-04-20T14:15:34.308Z,860
2017-04-20T14:16:46.850Z,915
2017-04-20T14:17:59.074Z,965
2017-04-20T14:19:11.613Z,960
2017-04-20T14:20:23.966Z,960
2017-04-20T14:21:36.613Z,950
2017-04-20T14:22:49.150Z,920
2017-04-20T14:24:01.701Z,865
2017-04-20T14:25:14.222Z,810
2017-04-20T14:26:26.742Z,740
2017-04-20T14:27:39.287Z,650
2017-04-20T14:28:51.810Z,590
2017-04-20T14:30:04.337Z,540
2017-04-20T14:31:16.857Z,510
2017-04-20T14:32:29.103Z,515
2017-04-20T14:33:41.320Z,530
2017-04-20T14:34:53.817Z,560
2017-04-20T14:36:06.350Z,575
2017-04-20T14:37:18.272Z,570
2017-04-20T14:38:30.718Z,545
2017-04-20T14:39:42.950Z,545
2017-04-20T14:40:55.488Z,515
2017-04-20T14:42:07.735Z,480
2017-04-20T14:43:20.266Z,450
2017-04-20T14:44:32.523Z,405
2017-04-20T14:45:44.755Z,390
2017-04-20T14:46:57.306Z,395
2017-04-20T14:48:09.823Z,405
2017-04-20T14:49:22.390Z,400
2017-04-20T14:50:34.631Z,405
2017-04-20T14:51:47.161Z,425
2017-04-20T14:52:59.420Z,415
2017-04-20T14:54:11.951Z,430
2017-04-20T14:55:24.469Z,440
2017-04-20T14:56:36.715Z,425
2017-04-20T14:57:48.938Z,410
2017-04-20T14:59:01.210Z,385
2017-04-20T15:00:13.453Z,365
2017-04-20T15:01:25.677Z,335
2017-04-20T15:02:38.200Z,305
2017-04-20T15:03:50.734Z,315
2017-04-20T15:05:03.239Z,315
2017-04-20T15:06:15.500Z,310
2017-04-20T15:07:28.020Z,305
2017-04-20T15:08:40.253Z,300
2017-04-20T15:09:52.776Z,295
2017-04-20T15:11:05.311Z,295
2017-04-20T15:12:17.841Z,295
2017-04-20T15:13:30.090Z,295
2017-04-20T15:14:42.350Z,295
2017-04-20T15:15:54.903Z,300
2017-04-20T15:17:07.140Z,315
2017-04-20T15:18:19.083Z,330
2017-04-20T15:19:31.440Z,340
2017-04-20T15:20:43.658Z,355
2017-04-20T15:21:56.475Z,375
2017-04-20T15:23:08.706Z,400
2017-04-20T15:24:20.924Z,430
2017-04-20T15:25:33.441Z,445
2017-04-20T15:26:45.968Z,460
2017-04-20T15:27:57.908Z,455
2017-04-20T15:29:10.159Z,450
2017-04-20T15:30:22.397Z,450
2017-04-20T15:31:34.347Z,455
2017-04-20T15:32:46.565Z,465
2017-04-20T15:33:59.088Z,480
2017-04-20T15:35:11.627Z,505
2017-04-20T15:36:23.860Z,545
2017-04-20T15:37:36.079Z,560
2017-04-20T15:38:48.000Z,565
2017-04-20T15:40:00.514Z,575
2017-04-20T15:41:12.464Z,575
2017-04-20T15:42:25.184Z,575
2017-04-20T15:43:37.110Z,555
2017-04-20T15:44:49.645Z,535
2017-04-20T15:46:01.876Z,515
2017-04-20T15:47:14.421Z,500
2017-04-20T15:48:26.916Z,490
2017-04-20T15:49:38.810Z,480
2017-04-20T15:50:51.324Z,475
2017-04-20T15:52:03.852Z,465
2017-04-20T15:53:16.393Z,450
2017-04-20T15:54:28.938Z,440
2017-04-20T15:55:41.157Z,440
2017-04-20T15:56:53.682Z,445
2017-04-20T15:58:05.603Z,450
2017-04-20T15:59:17.530Z,450
2017-04-20T16:00:30.059Z,440
2017-04-20T16:01:41.988Z,435
2017-04-20T16:02:54.768Z,425
2017-04-20T16:04:07.282Z,430
2017-04-20T16:05:19.828Z,435
2017-04-20T16:06:32.357Z,450
2017-04-20T16:07:44.877Z,445
2017-04-20T16:08:57.415Z,440
2017-04-20T16:10:09.645Z,430
2017-04-20T16:11:22.164Z,410
2017-04-20T16:12:34.060Z,390
2017-04-20T16:13:46.599Z,375
2017-04-20T16:14:58.825Z,370
2017-04-20T16:16:11.026Z,365
2017-04-20T16:17:23.541Z,345
2017-04-20T16:18:36.066Z,330
2017-04-20T16:19:48.583Z,310
2017-04-20T16:21:01.108Z,300
2017-04-20T16:22:13.650Z,290
2017-04-20T16:23:26.312Z,295
2017-04-20T16:24:38.222Z,285
2017-04-20T16:25:50.766Z,265
2017-04-20T16:27:03.310Z,250
2017-04-20T16:28:15.832Z,250
2017-04-20T16:29:28.354Z,255
2017-04-20T16:30:40.571Z,255
2017-04-20T16:31:52.788Z,255
2017-04-20T16:33:05.309Z,265
2017-04-20T16:34:17.513Z,275
2017-04-20T16:35:30.047Z,285
2017-04-20T16:36:42.576Z,295
2017-04-20T16:37:55.092Z,300
2017-04-20T16:39:07.335Z,295
2017-04-20T16:40:19.834Z,290
2017-04-20T16:41:32.334Z,285
2017-04-20T16:42:44.862Z,290
2017-04-20T16:43:57.271Z,285
2017-04-20T16:45:09.522Z,275
2017-04-20T16:46:22.047Z,255